Авиационная погода в Куусамо

Регион: 
Погода METAR: 
EFKS 221750Z AUTO 14006KT CAVOK M13/M14 Q1015
Время наблюдения
2022-01-22T17:50:00Z
Температура C
-13.0
Точка росы
-14.0
Направление ветра
140
Скорость ветра (узлы)
6
Метео видимость
6.21
Облачность
CAVOK
Нижняя граница облачности (футы)
Явления погоды
Условия полета
VFR